sensor_id;sensor_type;location;lat;lon;timestamp;P1;durP1;ratioP1;P2;durP2;ratioP2
20776;SDS011;10548;47.504;8.248;2023-01-28T00:02:24;35.33;;;18.83;;
20776;SDS011;10548;47.504;8.248;2023-01-28T00:04:51;39.20;;;17.07;;
20776;SDS011;10548;47.504;8.248;2023-01-28T00:07:18;32.43;;;17.47;;
20776;SDS011;10548;47.504;8.248;2023-01-28T00:09:46;35.80;;;16.97;;
20776;SDS011;10548;47.504;8.248;2023-01-28T00:12:13;37.70;;;18.53;;
20776;SDS011;10548;47.504;8.248;2023-01-28T00:14:40;36.33;;;18.37;;
20776;SDS011;10548;47.504;8.248;2023-01-28T00:17:07;34.90;;;18.80;;
20776;SDS011;10548;47.504;8.248;2023-01-28T00:19:34;35.37;;;18.43;;
20776;SDS011;10548;47.504;8.248;2023-01-28T00:22:02;34.77;;;17.70;;
20776;SDS011;10548;47.504;8.248;2023-01-28T00:24:29;37.57;;;18.40;;
20776;SDS011;10548;47.504;8.248;2023-01-28T00:26:57;35.53;;;18.03;;
20776;SDS011;10548;47.504;8.248;2023-01-28T00:29:24;35.20;;;17.27;;
20776;SDS011;10548;47.504;8.248;2023-01-28T00:31:51;34.87;;;17.60;;
20776;SDS011;10548;47.504;8.248;2023-01-28T00:34:18;34.83;;;16.97;;
20776;SDS011;10548;47.504;8.248;2023-01-28T00:36:46;35.97;;;18.50;;
20776;SDS011;10548;47.504;8.248;2023-01-28T00:39:23;35.17;;;17.33;;
20776;SDS011;10548;47.504;8.248;2023-01-28T00:41:52;42.87;;;17.47;;
20776;SDS011;10548;47.504;8.248;2023-01-28T00:44:23;36.23;;;19.17;;
20776;SDS011;10548;47.504;8.248;2023-01-28T00:46:50;37.77;;;18.10;;
20776;SDS011;10548;47.504;8.248;2023-01-28T00:49:20;34.20;;;17.93;;
20776;SDS011;10548;47.504;8.248;2023-01-28T00:51:47;34.17;;;16.97;;
20776;SDS011;10548;47.504;8.248;2023-01-28T00:54:14;34.87;;;17.77;;
20776;SDS011;10548;47.504;8.248;2023-01-28T00:56:42;36.63;;;17.10;;
20776;SDS011;10548;47.504;8.248;2023-01-28T00:59:09;35.53;;;17.97;;
20776;SDS011;10548;47.504;8.248;2023-01-28T01:01:36;33.90;;;15.60;;
20776;SDS011;10548;47.504;8.248;2023-01-28T01:04:03;36.13;;;16.83;;
20776;SDS011;10548;47.504;8.248;2023-01-28T01:06:38;36.00;;;18.03;;
20776;SDS011;10548;47.504;8.248;2023-01-28T01:09:07;37.10;;;17.77;;
20776;SDS011;10548;47.504;8.248;2023-01-28T01:11:36;38.80;;;18.47;;
20776;SDS011;10548;47.504;8.248;2023-01-28T01:14:04;32.40;;;17.87;;
20776;SDS011;10548;47.504;8.248;2023-01-28T01:16:32;34.27;;;17.20;;
20776;SDS011;10548;47.504;8.248;2023-01-28T01:19:01;31.23;;;16.27;;
20776;SDS011;10548;47.504;8.248;2023-01-28T01:21:29;34.23;;;17.70;;
20776;SDS011;10548;47.504;8.248;2023-01-28T01:23:57;37.00;;;17.90;;
20776;SDS011;10548;47.504;8.248;2023-01-28T01:26:24;37.70;;;17.87;;
20776;SDS011;10548;47.504;8.248;2023-01-28T01:28:55;32.63;;;16.67;;
20776;SDS011;10548;47.504;8.248;2023-01-28T01:31:23;32.63;;;16.07;;
20776;SDS011;10548;47.504;8.248;2023-01-28T01:33:50;35.57;;;18.53;;
20776;SDS011;10548;47.504;8.248;2023-01-28T01:36:18;31.63;;;16.47;;
20776;SDS011;10548;47.504;8.248;2023-01-28T01:38:47;36.10;;;18.53;;
20776;SDS011;10548;47.504;8.248;2023-01-28T01:41:24;31.57;;;16.80;;
20776;SDS011;10548;47.504;8.248;2023-01-28T01:43:58;34.83;;;18.17;;
20776;SDS011;10548;47.504;8.248;2023-01-28T01:49:23;29.37;;;16.57;;
20776;SDS011;10548;47.504;8.248;2023-01-28T01:52:11;31.73;;;16.67;;
20776;SDS011;10548;47.504;8.248;2023-01-28T01:54:42;35.60;;;17.53;;
20776;SDS011;10548;47.504;8.248;2023-01-28T01:57:13;31.93;;;16.27;;
20776;SDS011;10548;47.504;8.248;2023-01-28T01:59:48;29.63;;;16.27;;
20776;SDS011;10548;47.504;8.248;2023-01-28T02:02:15;30.27;;;16.23;;
20776;SDS011;10548;47.504;8.248;2023-01-28T02:04:43;32.73;;;17.00;;
20776;SDS011;10548;47.504;8.248;2023-01-28T02:07:15;35.40;;;17.30;;
20776;SDS011;10548;47.504;8.248;2023-01-28T02:09:44;29.87;;;16.10;;
20776;SDS011;10548;47.504;8.248;2023-01-28T02:12:12;32.33;;;16.67;;
20776;SDS011;10548;47.504;8.248;2023-01-28T02:15:26;28.37;;;15.93;;
20776;SDS011;10548;47.504;8.248;2023-01-28T02:17:36;30.37;;;16.07;;
20776;SDS011;10548;47.504;8.248;2023-01-28T02:20:07;31.80;;;16.30;;
20776;SDS011;10548;47.504;8.248;2023-01-28T02:22:54;30.77;;;17.17;;
20776;SDS011;10548;47.504;8.248;2023-01-28T02:29:36;29.93;;;16.50;;
20776;SDS011;10548;47.504;8.248;2023-01-28T02:35:36;28.37;;;15.80;;
20776;SDS011;10548;47.504;8.248;2023-01-28T02:38:17;30.57;;;16.80;;
20776;SDS011;10548;47.504;8.248;2023-01-28T02:41:01;29.73;;;16.57;;
20776;SDS011;10548;47.504;8.248;2023-01-28T02:43:36;30.77;;;16.03;;
20776;SDS011;10548;47.504;8.248;2023-01-28T02:49:29;31.33;;;16.60;;
20776;SDS011;10548;47.504;8.248;2023-01-28T02:52:13;30.93;;;16.10;;
20776;SDS011;10548;47.504;8.248;2023-01-28T02:55:22;30.53;;;16.37;;
20776;SDS011;10548;47.504;8.248;2023-01-28T03:01:36;28.50;;;15.97;;
20776;SDS011;10548;47.504;8.248;2023-01-28T03:04:14;30.60;;;15.90;;
20776;SDS011;10548;47.504;8.248;2023-01-28T03:06:53;29.93;;;15.40;;
20776;SDS011;10548;47.504;8.248;2023-01-28T03:09:25;28.13;;;14.83;;
20776;SDS011;10548;47.504;8.248;2023-01-28T03:12:03;28.07;;;15.60;;
20776;SDS011;10548;47.504;8.248;2023-01-28T03:18:29;28.47;;;16.87;;
20776;SDS011;10548;47.504;8.248;2023-01-28T03:21:25;31.07;;;16.70;;
20776;SDS011;10548;47.504;8.248;2023-01-28T03:24:23;31.83;;;17.97;;
20776;SDS011;10548;47.504;8.248;2023-01-28T03:27:25;31.47;;;18.03;;
20776;SDS011;10548;47.504;8.248;2023-01-28T03:30:19;31.37;;;17.77;;
20776;SDS011;10548;47.504;8.248;2023-01-28T03:33:14;30.93;;;17.33;;
20776;SDS011;10548;47.504;8.248;2023-01-28T03:36:00;33.67;;;18.30;;
20776;SDS011;10548;47.504;8.248;2023-01-28T03:38:47;30.77;;;17.43;;
20776;SDS011;10548;47.504;8.248;2023-01-28T03:41:19;32.83;;;17.67;;
20776;SDS011;10548;47.504;8.248;2023-01-28T03:43:52;28.50;;;16.07;;
20776;SDS011;10548;47.504;8.248;2023-01-28T03:46:20;33.23;;;18.37;;
20776;SDS011;10548;47.504;8.248;2023-01-28T03:48:47;29.40;;;16.03;;
20776;SDS011;10548;47.504;8.248;2023-01-28T03:51:15;27.53;;;16.87;;
20776;SDS011;10548;47.504;8.248;2023-01-28T03:53:43;27.13;;;16.53;;
20776;SDS011;10548;47.504;8.248;2023-01-28T03:56:10;28.50;;;15.80;;
20776;SDS011;10548;47.504;8.248;2023-01-28T03:58:44;22.33;;;13.87;;
20776;SDS011;10548;47.504;8.248;2023-01-28T04:01:18;19.77;;;13.13;;
20776;SDS011;10548;47.504;8.248;2023-01-28T04:03:46;21.87;;;13.80;;
20776;SDS011;10548;47.504;8.248;2023-01-28T04:06:18;21.23;;;13.53;;
20776;SDS011;10548;47.504;8.248;2023-01-28T04:08:56;20.73;;;12.50;;
20776;SDS011;10548;47.504;8.248;2023-01-28T04:11:38;16.90;;;11.03;;
20776;SDS011;10548;47.504;8.248;2023-01-28T04:14:06;19.93;;;12.17;;
20776;SDS011;10548;47.504;8.248;2023-01-28T04:16:44;20.03;;;12.10;;
20776;SDS011;10548;47.504;8.248;2023-01-28T04:19:11;20.10;;;11.63;;
20776;SDS011;10548;47.504;8.248;2023-01-28T04:21:39;18.47;;;11.17;;
20776;SDS011;10548;47.504;8.248;2023-01-28T04:24:08;18.70;;;11.47;;
20776;SDS011;10548;47.504;8.248;2023-01-28T04:26:35;17.70;;;11.00;;
20776;SDS011;10548;47.504;8.248;2023-01-28T04:29:03;17.13;;;10.43;;
20776;SDS011;10548;47.504;8.248;2023-01-28T04:31:33;20.33;;;12.47;;
20776;SDS011;10548;47.504;8.248;2023-01-28T04:34:16;20.17;;;13.03;;
20776;SDS011;10548;47.504;8.248;2023-01-28T04:37:08;18.60;;;12.17;;
20776;SDS011;10548;47.504;8.248;2023-01-28T04:39:54;16.50;;;10.77;;
20776;SDS011;10548;47.504;8.248;2023-01-28T04:42:41;14.93;;;9.97;;
20776;SDS011;10548;47.504;8.248;2023-01-28T04:45:24;15.03;;;9.40;;
20776;SDS011;10548;47.504;8.248;2023-01-28T04:48:10;14.20;;;9.53;;
20776;SDS011;10548;47.504;8.248;2023-01-28T04:51:01;17.37;;;9.30;;
20776;SDS011;10548;47.504;8.248;2023-01-28T04:53:54;16.63;;;10.10;;
20776;SDS011;10548;47.504;8.248;2023-01-28T04:56:25;18.53;;;10.60;;
20776;SDS011;10548;47.504;8.248;2023-01-28T04:58:52;14.63;;;9.97;;
20776;SDS011;10548;47.504;8.248;2023-01-28T05:01:19;20.87;;;12.00;;
20776;SDS011;10548;47.504;8.248;2023-01-28T05:03:46;16.53;;;9.73;;
20776;SDS011;10548;47.504;8.248;2023-01-28T05:06:22;14.87;;;9.50;;
20776;SDS011;10548;47.504;8.248;2023-01-28T05:08:52;16.13;;;9.17;;
20776;SDS011;10548;47.504;8.248;2023-01-28T05:11:19;20.90;;;13.10;;
20776;SDS011;10548;47.504;8.248;2023-01-28T05:13:51;15.10;;;9.80;;
20776;SDS011;10548;47.504;8.248;2023-01-28T05:16:20;15.47;;;9.43;;
20776;SDS011;10548;47.504;8.248;2023-01-28T05:18:47;15.13;;;9.27;;
20776;SDS011;10548;47.504;8.248;2023-01-28T05:21:18;14.30;;;8.87;;
20776;SDS011;10548;47.504;8.248;2023-01-28T05:23:51;15.10;;;8.93;;
20776;SDS011;10548;47.504;8.248;2023-01-28T05:26:18;16.17;;;10.27;;
20776;SDS011;10548;47.504;8.248;2023-01-28T05:28:46;16.63;;;9.83;;
20776;SDS011;10548;47.504;8.248;2023-01-28T05:31:13;14.83;;;9.87;;
20776;SDS011;10548;47.504;8.248;2023-01-28T05:33:40;16.73;;;9.83;;
20776;SDS011;10548;47.504;8.248;2023-01-28T05:36:09;16.90;;;10.73;;
20776;SDS011;10548;47.504;8.248;2023-01-28T05:38:37;15.53;;;9.23;;
20776;SDS011;10548;47.504;8.248;2023-01-28T05:41:04;17.70;;;10.90;;
20776;SDS011;10548;47.504;8.248;2023-01-28T05:43:32;16.73;;;9.47;;
20776;SDS011;10548;47.504;8.248;2023-01-28T05:46:24;16.37;;;10.53;;
20776;SDS011;10548;47.504;8.248;2023-01-28T05:49:15;17.37;;;10.60;;
20776;SDS011;10548;47.504;8.248;2023-01-28T05:52:08;17.60;;;10.10;;
20776;SDS011;10548;47.504;8.248;2023-01-28T05:54:35;19.43;;;11.30;;
20776;SDS011;10548;47.504;8.248;2023-01-28T05:57:03;20.13;;;11.73;;
20776;SDS011;10548;47.504;8.248;2023-01-28T05:59:32;21.47;;;11.97;;
20776;SDS011;10548;47.504;8.248;2023-01-28T06:01:59;19.40;;;12.43;;
20776;SDS011;10548;47.504;8.248;2023-01-28T06:04:27;18.20;;;11.53;;
20776;SDS011;10548;47.504;8.248;2023-01-28T06:06:54;19.53;;;11.73;;
20776;SDS011;10548;47.504;8.248;2023-01-28T06:09:21;17.47;;;11.03;;
20776;SDS011;10548;47.504;8.248;2023-01-28T06:11:50;19.27;;;11.00;;
20776;SDS011;10548;47.504;8.248;2023-01-28T06:14:17;18.10;;;11.37;;
20776;SDS011;10548;47.504;8.248;2023-01-28T06:17:04;19.77;;;12.30;;
20776;SDS011;10548;47.504;8.248;2023-01-28T06:19:36;18.53;;;12.00;;
20776;SDS011;10548;47.504;8.248;2023-01-28T06:22:05;18.10;;;11.67;;
20776;SDS011;10548;47.504;8.248;2023-01-28T06:24:32;20.73;;;12.60;;
20776;SDS011;10548;47.504;8.248;2023-01-28T06:26:59;22.23;;;13.07;;
20776;SDS011;10548;47.504;8.248;2023-01-28T06:29:26;20.23;;;12.37;;
20776;SDS011;10548;47.504;8.248;2023-01-28T06:31:54;18.97;;;12.13;;
20776;SDS011;10548;47.504;8.248;2023-01-28T06:34:21;19.53;;;12.57;;
20776;SDS011;10548;47.504;8.248;2023-01-28T06:36:48;22.00;;;13.67;;
20776;SDS011;10548;47.504;8.248;2023-01-28T06:39:16;19.30;;;12.07;;
20776;SDS011;10548;47.504;8.248;2023-01-28T06:41:43;20.77;;;13.40;;
20776;SDS011;10548;47.504;8.248;2023-01-28T06:44:10;24.57;;;14.43;;
20776;SDS011;10548;47.504;8.248;2023-01-28T06:46:38;19.77;;;12.57;;
20776;SDS011;10548;47.504;8.248;2023-01-28T06:49:05;20.33;;;12.63;;
20776;SDS011;10548;47.504;8.248;2023-01-28T06:51:32;22.17;;;12.77;;
20776;SDS011;10548;47.504;8.248;2023-01-28T06:54:00;21.43;;;13.30;;
20776;SDS011;10548;47.504;8.248;2023-01-28T06:56:27;20.07;;;13.23;;
20776;SDS011;10548;47.504;8.248;2023-01-28T06:58:54;20.07;;;13.80;;
20776;SDS011;10548;47.504;8.248;2023-01-28T07:01:21;21.00;;;13.30;;
20776;SDS011;10548;47.504;8.248;2023-01-28T07:03:48;21.27;;;12.57;;
20776;SDS011;10548;47.504;8.248;2023-01-28T07:06:15;23.87;;;14.03;;
20776;SDS011;10548;47.504;8.248;2023-01-28T07:08:42;17.60;;;11.53;;
20776;SDS011;10548;47.504;8.248;2023-01-28T07:11:09;19.53;;;11.70;;
20776;SDS011;10548;47.504;8.248;2023-01-28T07:13:37;20.97;;;12.17;;
20776;SDS011;10548;47.504;8.248;2023-01-28T07:16:04;22.77;;;12.90;;
20776;SDS011;10548;47.504;8.248;2023-01-28T07:18:32;21.50;;;12.63;;
20776;SDS011;10548;47.504;8.248;2023-01-28T07:20:59;23.83;;;12.60;;
20776;SDS011;10548;47.504;8.248;2023-01-28T07:23:26;21.00;;;13.13;;
20776;SDS011;10548;47.504;8.248;2023-01-28T07:25:54;21.90;;;13.00;;
20776;SDS011;10548;47.504;8.248;2023-01-28T07:28:26;23.00;;;13.87;;
20776;SDS011;10548;47.504;8.248;2023-01-28T07:30:53;18.50;;;11.37;;
20776;SDS011;10548;47.504;8.248;2023-01-28T07:33:20;23.20;;;12.50;;
20776;SDS011;10548;47.504;8.248;2023-01-28T07:35:47;21.07;;;12.57;;
20776;SDS011;10548;47.504;8.248;2023-01-28T07:38:14;22.93;;;12.70;;
20776;SDS011;10548;47.504;8.248;2023-01-28T07:40:41;22.03;;;11.93;;
20776;SDS011;10548;47.504;8.248;2023-01-28T07:43:09;20.93;;;12.27;;
20776;SDS011;10548;47.504;8.248;2023-01-28T07:45:38;21.73;;;12.83;;
20776;SDS011;10548;47.504;8.248;2023-01-28T07:48:06;19.80;;;11.77;;
20776;SDS011;10548;47.504;8.248;2023-01-28T07:50:36;21.30;;;12.10;;
20776;SDS011;10548;47.504;8.248;2023-01-28T07:53:04;20.37;;;11.37;;
20776;SDS011;10548;47.504;8.248;2023-01-28T07:55:33;20.60;;;11.73;;
20776;SDS011;10548;47.504;8.248;2023-01-28T07:58:05;21.33;;;11.17;;
20776;SDS011;10548;47.504;8.248;2023-01-28T08:00:34;19.00;;;12.17;;
20776;SDS011;10548;47.504;8.248;2023-01-28T08:03:08;21.43;;;12.97;;
20776;SDS011;10548;47.504;8.248;2023-01-28T08:05:41;19.83;;;11.73;;
20776;SDS011;10548;47.504;8.248;2023-01-28T08:08:11;21.07;;;11.43;;
20776;SDS011;10548;47.504;8.248;2023-01-28T08:10:39;19.67;;;12.30;;
20776;SDS011;10548;47.504;8.248;2023-01-28T08:13:08;17.27;;;11.37;;
20776;SDS011;10548;47.504;8.248;2023-01-28T08:15:35;20.03;;;12.07;;
20776;SDS011;10548;47.504;8.248;2023-01-28T08:18:03;19.23;;;12.17;;
20776;SDS011;10548;47.504;8.248;2023-01-28T08:20:32;18.80;;;11.70;;
20776;SDS011;10548;47.504;8.248;2023-01-28T08:23:18;18.77;;;10.67;;
20776;SDS011;10548;47.504;8.248;2023-01-28T08:25:49;20.07;;;11.27;;
20776;SDS011;10548;47.504;8.248;2023-01-28T08:28:16;19.87;;;12.57;;
20776;SDS011;10548;47.504;8.248;2023-01-28T08:30:43;19.60;;;10.87;;
20776;SDS011;10548;47.504;8.248;2023-01-28T08:33:13;17.63;;;11.30;;
20776;SDS011;10548;47.504;8.248;2023-01-28T08:35:41;15.10;;;9.90;;
20776;SDS011;10548;47.504;8.248;2023-01-28T08:38:09;17.43;;;11.17;;
20776;SDS011;10548;47.504;8.248;2023-01-28T08:40:37;17.87;;;11.60;;
20776;SDS011;10548;47.504;8.248;2023-01-28T08:43:05;19.73;;;11.47;;
20776;SDS011;10548;47.504;8.248;2023-01-28T08:45:32;17.30;;;11.27;;
20776;SDS011;10548;47.504;8.248;2023-01-28T08:48:00;16.93;;;10.50;;
20776;SDS011;10548;47.504;8.248;2023-01-28T08:50:33;15.17;;;9.80;;
20776;SDS011;10548;47.504;8.248;2023-01-28T08:53:03;15.67;;;9.63;;
20776;SDS011;10548;47.504;8.248;2023-01-28T08:55:32;15.50;;;10.17;;
20776;SDS011;10548;47.504;8.248;2023-01-28T08:58:03;17.23;;;10.43;;
20776;SDS011;10548;47.504;8.248;2023-01-28T09:00:33;17.20;;;10.43;;
20776;SDS011;10548;47.504;8.248;2023-01-28T09:03:00;30.87;;;23.03;;
20776;SDS011;10548;47.504;8.248;2023-01-28T09:05:31;18.07;;;11.97;;
20776;SDS011;10548;47.504;8.248;2023-01-28T09:08:00;16.73;;;10.03;;
20776;SDS011;10548;47.504;8.248;2023-01-28T09:10:28;20.03;;;12.70;;
20776;SDS011;10548;47.504;8.248;2023-01-28T09:12:56;30.47;;;26.33;;
20776;SDS011;10548;47.504;8.248;2023-01-28T09:15:23;14.27;;;9.63;;
20776;SDS011;10548;47.504;8.248;2023-01-28T09:17:55;16.93;;;10.63;;
20776;SDS011;10548;47.504;8.248;2023-01-28T09:20:23;16.90;;;10.17;;
20776;SDS011;10548;47.504;8.248;2023-01-28T09:22:51;16.20;;;9.83;;
20776;SDS011;10548;47.504;8.248;2023-01-28T09:25:18;19.87;;;10.87;;
20776;SDS011;10548;47.504;8.248;2023-01-28T09:27:45;16.90;;;10.60;;
20776;SDS011;10548;47.504;8.248;2023-01-28T09:30:13;16.93;;;9.13;;
20776;SDS011;10548;47.504;8.248;2023-01-28T09:32:40;18.20;;;11.13;;
20776;SDS011;10548;47.504;8.248;2023-01-28T09:35:08;16.03;;;9.50;;
20776;SDS011;10548;47.504;8.248;2023-01-28T09:37:35;17.37;;;10.67;;
20776;SDS011;10548;47.504;8.248;2023-01-28T09:40:03;16.30;;;10.37;;
20776;SDS011;10548;47.504;8.248;2023-01-28T09:45:51;15.43;;;9.00;;
20776;SDS011;10548;47.504;8.248;2023-01-28T09:48:25;22.03;;;15.83;;
20776;SDS011;10548;47.504;8.248;2023-01-28T09:50:58;18.27;;;12.67;;
20776;SDS011;10548;47.504;8.248;2023-01-28T09:53:30;15.97;;;9.10;;
20776;SDS011;10548;47.504;8.248;2023-01-28T09:56:01;14.57;;;8.67;;
20776;SDS011;10548;47.504;8.248;2023-01-28T09:58:51;13.27;;;8.73;;
20776;SDS011;10548;47.504;8.248;2023-01-28T10:01:34;12.50;;;7.90;;
20776;SDS011;10548;47.504;8.248;2023-01-28T10:07:33;12.70;;;8.07;;
20776;SDS011;10548;47.504;8.248;2023-01-28T10:10:18;16.67;;;10.80;;
20776;SDS011;10548;47.504;8.248;2023-01-28T10:12:59;12.37;;;7.93;;
20776;SDS011;10548;47.504;8.248;2023-01-28T10:16:11;14.67;;;9.33;;
20776;SDS011;10548;47.504;8.248;2023-01-28T10:18:43;13.87;;;8.53;;
20776;SDS011;10548;47.504;8.248;2023-01-28T10:21:48;15.17;;;8.17;;
20776;SDS011;10548;47.504;8.248;2023-01-28T10:24:44;14.67;;;8.37;;
20776;SDS011;10548;47.504;8.248;2023-01-28T10:27:25;12.80;;;8.07;;
20776;SDS011;10548;47.504;8.248;2023-01-28T10:29:55;14.17;;;8.37;;
20776;SDS011;10548;47.504;8.248;2023-01-28T10:32:27;14.77;;;7.57;;
20776;SDS011;10548;47.504;8.248;2023-01-28T10:34:56;12.37;;;8.27;;
20776;SDS011;10548;47.504;8.248;2023-01-28T10:37:25;13.70;;;8.33;;
20776;SDS011;10548;47.504;8.248;2023-01-28T10:39:54;13.57;;;8.50;;
20776;SDS011;10548;47.504;8.248;2023-01-28T10:42:31;14.07;;;8.20;;
20776;SDS011;10548;47.504;8.248;2023-01-28T10:45:07;14.37;;;8.37;;
20776;SDS011;10548;47.504;8.248;2023-01-28T10:47:47;13.43;;;8.23;;
20776;SDS011;10548;47.504;8.248;2023-01-28T10:50:35;15.53;;;8.20;;
20776;SDS011;10548;47.504;8.248;2023-01-28T10:53:03;12.97;;;7.90;;
20776;SDS011;10548;47.504;8.248;2023-01-28T10:55:50;12.67;;;8.17;;
20776;SDS011;10548;47.504;8.248;2023-01-28T10:58:24;16.53;;;9.00;;
20776;SDS011;10548;47.504;8.248;2023-01-28T11:00:55;13.50;;;8.20;;
20776;SDS011;10548;47.504;8.248;2023-01-28T11:03:26;12.33;;;7.57;;
20776;SDS011;10548;47.504;8.248;2023-01-28T11:05:55;10.90;;;6.87;;
20776;SDS011;10548;47.504;8.248;2023-01-28T11:08:24;10.77;;;6.97;;
20776;SDS011;10548;47.504;8.248;2023-01-28T11:10:53;12.73;;;7.33;;
20776;SDS011;10548;47.504;8.248;2023-01-28T11:13:22;11.37;;;6.60;;
20776;SDS011;10548;47.504;8.248;2023-01-28T11:15:52;10.63;;;7.50;;
20776;SDS011;10548;47.504;8.248;2023-01-28T11:18:32;11.40;;;7.43;;
20776;SDS011;10548;47.504;8.248;2023-01-28T11:21:06;12.13;;;7.13;;
20776;SDS011;10548;47.504;8.248;2023-01-28T11:23:46;12.83;;;7.07;;
20776;SDS011;10548;47.504;8.248;2023-01-28T11:26:22;10.33;;;6.53;;
20776;SDS011;10548;47.504;8.248;2023-01-28T11:28:51;36.53;;;18.60;;
20776;SDS011;10548;47.504;8.248;2023-01-28T11:31:20;11.70;;;7.50;;
20776;SDS011;10548;47.504;8.248;2023-01-28T11:34:01;14.60;;;9.07;;
20776;SDS011;10548;47.504;8.248;2023-01-28T11:36:31;13.57;;;8.60;;
20776;SDS011;10548;47.504;8.248;2023-01-28T11:39:20;13.20;;;8.17;;
20776;SDS011;10548;47.504;8.248;2023-01-28T11:41:51;13.23;;;7.43;;
20776;SDS011;10548;47.504;8.248;2023-01-28T11:44:20;18.70;;;10.73;;
20776;SDS011;10548;47.504;8.248;2023-01-28T11:53:02;12.40;;;8.10;;
20776;SDS011;10548;47.504;8.248;2023-01-28T11:56:07;13.97;;;8.73;;
20776;SDS011;10548;47.504;8.248;2023-01-28T11:59:55;47.07;;;26.50;;
20776;SDS011;10548;47.504;8.248;2023-01-28T12:02:42;15.67;;;9.07;;
20776;SDS011;10548;47.504;8.248;2023-01-28T12:05:48;15.43;;;9.77;;
20776;SDS011;10548;47.504;8.248;2023-01-28T12:08:28;17.00;;;10.90;;
20776;SDS011;10548;47.504;8.248;2023-01-28T12:16:12;14.87;;;9.07;;
20776;SDS011;10548;47.504;8.248;2023-01-28T12:18:14;15.87;;;9.97;;
20776;SDS011;10548;47.504;8.248;2023-01-28T12:20:59;14.57;;;9.57;;
20776;SDS011;10548;47.504;8.248;2023-01-28T12:24:11;15.50;;;9.67;;
20776;SDS011;10548;47.504;8.248;2023-01-28T12:27:00;17.43;;;10.27;;
20776;SDS011;10548;47.504;8.248;2023-01-28T12:30:14;15.90;;;9.73;;
20776;SDS011;10548;47.504;8.248;2023-01-28T12:33:32;17.40;;;10.03;;
20776;SDS011;10548;47.504;8.248;2023-01-28T12:42:37;17.10;;;10.27;;
20776;SDS011;10548;47.504;8.248;2023-01-28T12:45:15;18.07;;;11.23;;
20776;SDS011;10548;47.504;8.248;2023-01-28T12:47:54;19.77;;;11.60;;
20776;SDS011;10548;47.504;8.248;2023-01-28T12:50:45;18.57;;;11.73;;
20776;SDS011;10548;47.504;8.248;2023-01-28T12:54:03;17.70;;;10.73;;
20776;SDS011;10548;47.504;8.248;2023-01-28T12:56:28;20.97;;;11.77;;
20776;SDS011;10548;47.504;8.248;2023-01-28T12:59:01;18.47;;;11.30;;
20776;SDS011;10548;47.504;8.248;2023-01-28T13:04:58;20.17;;;10.90;;
20776;SDS011;10548;47.504;8.248;2023-01-28T13:10:46;16.30;;;10.27;;
20776;SDS011;10548;47.504;8.248;2023-01-28T13:13:15;16.93;;;10.37;;
20776;SDS011;10548;47.504;8.248;2023-01-28T13:15:45;18.20;;;10.80;;
20776;SDS011;10548;47.504;8.248;2023-01-28T13:24:19;15.90;;;10.23;;
20776;SDS011;10548;47.504;8.248;2023-01-28T13:26:50;15.70;;;9.47;;
20776;SDS011;10548;47.504;8.248;2023-01-28T13:29:30;14.37;;;8.40;;
20776;SDS011;10548;47.504;8.248;2023-01-28T13:32:00;16.70;;;10.13;;
20776;SDS011;10548;47.504;8.248;2023-01-28T13:34:35;17.33;;;9.27;;
20776;SDS011;10548;47.504;8.248;2023-01-28T13:43:02;15.43;;;9.30;;
20776;SDS011;10548;47.504;8.248;2023-01-28T13:45:31;22.30;;;12.90;;
20776;SDS011;10548;47.504;8.248;2023-01-28T13:50:56;18.73;;;11.87;;
20776;SDS011;10548;47.504;8.248;2023-01-28T13:56:25;16.17;;;9.97;;
20776;SDS011;10548;47.504;8.248;2023-01-28T14:05:25;27.77;;;15.17;;
20776;SDS011;10548;47.504;8.248;2023-01-28T14:08:27;32.97;;;18.77;;
20776;SDS011;10548;47.504;8.248;2023-01-28T14:17:53;37.57;;;21.27;;
20776;SDS011;10548;47.504;8.248;2023-01-28T14:20:26;32.20;;;16.40;;
20776;SDS011;10548;47.504;8.248;2023-01-28T14:23:04;30.63;;;16.83;;
20776;SDS011;10548;47.504;8.248;2023-01-28T14:25:49;28.63;;;16.53;;
20776;SDS011;10548;47.504;8.248;2023-01-28T14:28:47;33.10;;;15.80;;
20776;SDS011;10548;47.504;8.248;2023-01-28T14:31:41;32.67;;;17.93;;
20776;SDS011;10548;47.504;8.248;2023-01-28T14:34:18;21.03;;;12.57;;
20776;SDS011;10548;47.504;8.248;2023-01-28T14:36:55;18.80;;;10.90;;
20776;SDS011;10548;47.504;8.248;2023-01-28T14:39:26;18.40;;;10.00;;
20776;SDS011;10548;47.504;8.248;2023-01-28T14:41:55;14.33;;;8.33;;
20776;SDS011;10548;47.504;8.248;2023-01-28T14:44:35;14.67;;;9.50;;
20776;SDS011;10548;47.504;8.248;2023-01-28T14:47:50;18.67;;;10.87;;
20776;SDS011;10548;47.504;8.248;2023-01-28T14:53:55;14.27;;;8.20;;
20776;SDS011;10548;47.504;8.248;2023-01-28T14:57:20;14.27;;;8.27;;
20776;SDS011;10548;47.504;8.248;2023-01-28T14:59:54;19.00;;;10.87;;
20776;SDS011;10548;47.504;8.248;2023-01-28T15:02:24;16.80;;;9.50;;
20776;SDS011;10548;47.504;8.248;2023-01-28T15:05:06;14.47;;;8.67;;
20776;SDS011;10548;47.504;8.248;2023-01-28T15:07:44;13.53;;;8.60;;
20776;SDS011;10548;47.504;8.248;2023-01-28T15:10:30;12.87;;;8.27;;
20776;SDS011;10548;47.504;8.248;2023-01-28T15:13:06;16.10;;;8.60;;
20776;SDS011;10548;47.504;8.248;2023-01-28T15:15:37;15.37;;;8.20;;
20776;SDS011;10548;47.504;8.248;2023-01-28T15:18:15;14.40;;;9.10;;
20776;SDS011;10548;47.504;8.248;2023-01-28T15:20:50;17.37;;;9.37;;
20776;SDS011;10548;47.504;8.248;2023-01-28T15:26:18;14.17;;;8.10;;
20776;SDS011;10548;47.504;8.248;2023-01-28T15:28:48;13.13;;;8.10;;
20776;SDS011;10548;47.504;8.248;2023-01-28T15:31:32;16.10;;;8.43;;
20776;SDS011;10548;47.504;8.248;2023-01-28T15:37:00;12.73;;;7.97;;
20776;SDS011;10548;47.504;8.248;2023-01-28T15:39:28;13.40;;;8.50;;
20776;SDS011;10548;47.504;8.248;2023-01-28T15:41:56;13.40;;;8.23;;
20776;SDS011;10548;47.504;8.248;2023-01-28T15:44:28;14.03;;;8.53;;
20776;SDS011;10548;47.504;8.248;2023-01-28T15:47:01;14.13;;;8.27;;
20776;SDS011;10548;47.504;8.248;2023-01-28T15:49:32;14.13;;;9.13;;
20776;SDS011;10548;47.504;8.248;2023-01-28T15:52:03;15.33;;;9.37;;
20776;SDS011;10548;47.504;8.248;2023-01-28T15:54:30;16.53;;;9.57;;
20776;SDS011;10548;47.504;8.248;2023-01-28T15:57:07;15.40;;;9.77;;
20776;SDS011;10548;47.504;8.248;2023-01-28T15:59:48;17.67;;;9.77;;
20776;SDS011;10548;47.504;8.248;2023-01-28T16:02:20;15.70;;;9.20;;
20776;SDS011;10548;47.504;8.248;2023-01-28T16:04:59;16.37;;;9.77;;
20776;SDS011;10548;47.504;8.248;2023-01-28T16:07:28;15.83;;;9.23;;
20776;SDS011;10548;47.504;8.248;2023-01-28T16:09:58;17.63;;;9.80;;
20776;SDS011;10548;47.504;8.248;2023-01-28T16:12:27;15.10;;;9.47;;
20776;SDS011;10548;47.504;8.248;2023-01-28T16:14:55;17.73;;;10.43;;
20776;SDS011;10548;47.504;8.248;2023-01-28T16:17:36;17.30;;;10.23;;
20776;SDS011;10548;47.504;8.248;2023-01-28T16:20:07;17.33;;;9.80;;
20776;SDS011;10548;47.504;8.248;2023-01-28T16:22:44;19.57;;;10.57;;
20776;SDS011;10548;47.504;8.248;2023-01-28T16:25:28;16.63;;;10.17;;
20776;SDS011;10548;47.504;8.248;2023-01-28T16:27:58;17.50;;;11.07;;
20776;SDS011;10548;47.504;8.248;2023-01-28T16:30:27;17.03;;;9.47;;
20776;SDS011;10548;47.504;8.248;2023-01-28T16:32:55;15.70;;;9.43;;
20776;SDS011;10548;47.504;8.248;2023-01-28T16:35:23;19.53;;;10.73;;
20776;SDS011;10548;47.504;8.248;2023-01-28T16:38:14;18.00;;;10.63;;
20776;SDS011;10548;47.504;8.248;2023-01-28T16:40:45;18.07;;;10.70;;